sensor_id;sensor_type;location;lat;lon;timestamp;temperature;humidity
70149;DHT22;57514;52.164;5.282;2022-08-19T00:01:28;18.90;86.60
70149;DHT22;57514;52.164;5.282;2022-08-19T00:04:03;16.90;93.00
70149;DHT22;57514;52.164;5.282;2022-08-19T00:06:31;18.70;93.40
70149;DHT22;57514;52.164;5.282;2022-08-19T00:08:59;17.00;92.90
70149;DHT22;57514;52.164;5.282;2022-08-19T00:13:55;18.00;93.50
70149;DHT22;57514;52.164;5.282;2022-08-19T00:16:24;16.40;93.00
70149;DHT22;57514;52.164;5.282;2022-08-19T00:18:54;18.70;93.70
70149;DHT22;57514;52.164;5.282;2022-08-19T00:21:23;17.20;93.20
70149;DHT22;57514;52.164;5.282;2022-08-19T00:23:50;18.60;93.60
70149;DHT22;57514;52.164;5.282;2022-08-19T00:26:17;18.50;93.80
70149;DHT22;57514;52.164;5.282;2022-08-19T00:28:43;16.70;93.20
70149;DHT22;57514;52.164;5.282;2022-08-19T00:31:10;16.00;93.20
70149;DHT22;57514;52.164;5.282;2022-08-19T00:33:37;16.50;93.40
70149;DHT22;57514;52.164;5.282;2022-08-19T00:36:07;16.20;93.30
70149;DHT22;57514;52.164;5.282;2022-08-19T00:38:36;19.00;93.90
70149;DHT22;57514;52.164;5.282;2022-08-19T00:41:05;18.90;93.80
70149;DHT22;57514;52.164;5.282;2022-08-19T00:43:33;18.60;93.80
70149;DHT22;57514;52.164;5.282;2022-08-19T00:46:00;18.10;93.70
70149;DHT22;57514;52.164;5.282;2022-08-19T00:48:29;17.60;93.70
70149;DHT22;57514;52.164;5.282;2022-08-19T00:50:56;17.30;93.60
70149;DHT22;57514;52.164;5.282;2022-08-19T00:53:26;17.30;93.70
70149;DHT22;57514;52.164;5.282;2022-08-19T00:55:56;16.50;93.60
70149;DHT22;57514;52.164;5.282;2022-08-19T00:58:28;17.40;93.80
70149;DHT22;57514;52.164;5.282;2022-08-19T01:00:56;18.70;94.20
70149;DHT22;57514;52.164;5.282;2022-08-19T01:03:23;17.60;94.00
70149;DHT22;57514;52.164;5.282;2022-08-19T01:05:51;17.50;94.10
70149;DHT22;57514;52.164;5.282;2022-08-19T01:08:21;18.60;93.20
70149;DHT22;57514;52.164;5.282;2022-08-19T01:10:55;16.90;94.00
70149;DHT22;57514;52.164;5.282;2022-08-19T01:13:26;16.20;93.70
70149;DHT22;57514;52.164;5.282;2022-08-19T01:16:12;18.20;94.30
70149;DHT22;57514;52.164;5.282;2022-08-19T01:18:42;17.10;85.70
70149;DHT22;57514;52.164;5.282;2022-08-19T01:21:15;16.20;93.90
70149;DHT22;57514;52.164;5.282;2022-08-19T01:23:45;15.80;93.80
70149;DHT22;57514;52.164;5.282;2022-08-19T01:26:17;17.10;94.00
70149;DHT22;57514;52.164;5.282;2022-08-19T01:28:46;17.60;94.20
70149;DHT22;57514;52.164;5.282;2022-08-19T01:31:20;17.40;94.10
70149;DHT22;57514;52.164;5.282;2022-08-19T01:33:55;17.00;85.60
70149;DHT22;57514;52.164;5.282;2022-08-19T01:36:43;15.50;93.80
70149;DHT22;57514;52.164;5.282;2022-08-19T01:39:15;17.40;94.30
70149;DHT22;57514;52.164;5.282;2022-08-19T01:41:42;17.80;94.30
70149;DHT22;57514;52.164;5.282;2022-08-19T01:44:09;15.70;94.10
70149;DHT22;57514;52.164;5.282;2022-08-19T01:46:46;16.80;94.20
70149;DHT22;57514;52.164;5.282;2022-08-19T01:49:16;16.90;86.10
70149;DHT22;57514;52.164;5.282;2022-08-19T01:54:12;15.30;93.90
70149;DHT22;57514;52.164;5.282;2022-08-19T01:56:50;17.40;94.50
70149;DHT22;57514;52.164;5.282;2022-08-19T01:59:20;16.70;86.20
70149;DHT22;57514;52.164;5.282;2022-08-19T02:01:48;18.70;88.40
70149;DHT22;57514;52.164;5.282;2022-08-19T02:06:42;18.10;94.60
70149;DHT22;57514;52.164;5.282;2022-08-19T02:09:09;15.20;94.00
70149;DHT22;57514;52.164;5.282;2022-08-19T02:11:36;16.90;94.40
70149;DHT22;57514;52.164;5.282;2022-08-19T02:14:06;17.90;94.60
70149;DHT22;57514;52.164;5.282;2022-08-19T02:16:35;16.20;94.30
70149;DHT22;57514;52.164;5.282;2022-08-19T02:19:02;15.30;90.20
70149;DHT22;57514;52.164;5.282;2022-08-19T02:21:30;15.10;94.00
70149;DHT22;57514;52.164;5.282;2022-08-19T02:23:57;16.00;94.40
70149;DHT22;57514;52.164;5.282;2022-08-19T02:26:25;17.70;94.80
70149;DHT22;57514;52.164;5.282;2022-08-19T02:28:53;15.70;94.30
70149;DHT22;57514;52.164;5.282;2022-08-19T02:31:23;16.70;94.60
70149;DHT22;57514;52.164;5.282;2022-08-19T02:33:51;16.30;87.90
70149;DHT22;57514;52.164;5.282;2022-08-19T02:36:22;15.00;94.10
70149;DHT22;57514;52.164;5.282;2022-08-19T02:38:50;15.00;94.20
70149;DHT22;57514;52.164;5.282;2022-08-19T02:41:29;16.80;89.10
70149;DHT22;57514;52.164;5.282;2022-08-19T02:43:58;16.80;94.70
70149;DHT22;57514;52.164;5.282;2022-08-19T02:46:47;16.50;92.30
70149;DHT22;57514;52.164;5.282;2022-08-19T02:49:14;16.50;94.80
70149;DHT22;57514;52.164;5.282;2022-08-19T02:51:44;17.30;94.90
70149;DHT22;57514;52.164;5.282;2022-08-19T02:54:12;17.50;95.00
70149;DHT22;57514;52.164;5.282;2022-08-19T02:56:41;15.60;94.70
70149;DHT22;57514;52.164;5.282;2022-08-19T02:59:09;16.10;94.80
70149;DHT22;57514;52.164;5.282;2022-08-19T03:01:39;15.50;94.60
70149;DHT22;57514;52.164;5.282;2022-08-19T03:04:11;16.10;87.60
70149;DHT22;57514;52.164;5.282;2022-08-19T03:06:40;16.10;87.70
70149;DHT22;57514;52.164;5.282;2022-08-19T03:09:08;16.70;95.10
70149;DHT22;57514;52.164;5.282;2022-08-19T03:11:35;15.20;94.90
70149;DHT22;57514;52.164;5.282;2022-08-19T03:14:03;15.40;94.90
70149;DHT22;57514;52.164;5.282;2022-08-19T03:16:33;17.40;95.40
70149;DHT22;57514;52.164;5.282;2022-08-19T03:19:01;16.20;88.00
70149;DHT22;57514;52.164;5.282;2022-08-19T03:21:30;15.80;95.00
70149;DHT22;57514;52.164;5.282;2022-08-19T03:24:00;17.20;95.40
70149;DHT22;57514;52.164;5.282;2022-08-19T03:28:54;15.50;95.10
70149;DHT22;57514;52.164;5.282;2022-08-19T03:31:26;16.30;88.20
70149;DHT22;57514;52.164;5.282;2022-08-19T03:34:15;17.50;95.60
70149;DHT22;57514;52.164;5.282;2022-08-19T03:39:12;15.70;95.10
70149;DHT22;57514;52.164;5.282;2022-08-19T03:41:41;16.00;88.20
70149;DHT22;57514;52.164;5.282;2022-08-19T03:44:18;16.20;87.60
70149;DHT22;57514;52.164;5.282;2022-08-19T03:46:51;15.20;95.10
70149;DHT22;57514;52.164;5.282;2022-08-19T03:49:19;17.10;95.50
70149;DHT22;57514;52.164;5.282;2022-08-19T03:51:47;17.10;95.60
70149;DHT22;57514;52.164;5.282;2022-08-19T03:54:16;16.80;94.60
70149;DHT22;57514;52.164;5.282;2022-08-19T03:56:45;17.20;95.80
70149;DHT22;57514;52.164;5.282;2022-08-19T03:59:15;14.60;95.30
70149;DHT22;57514;52.164;5.282;2022-08-19T04:01:43;15.70;90.00
70149;DHT22;57514;52.164;5.282;2022-08-19T04:04:10;14.50;92.60
70149;DHT22;57514;52.164;5.282;2022-08-19T04:06:38;14.50;95.30
70149;DHT22;57514;52.164;5.282;2022-08-19T04:09:10;17.30;95.90
70149;DHT22;57514;52.164;5.282;2022-08-19T04:11:42;15.70;88.90
70149;DHT22;57514;52.164;5.282;2022-08-19T04:14:18;17.00;95.90
70149;DHT22;57514;52.164;5.282;2022-08-19T04:16:46;15.50;95.60
70149;DHT22;57514;52.164;5.282;2022-08-19T04:19:14;14.30;90.60
70149;DHT22;57514;52.164;5.282;2022-08-19T04:21:44;15.70;89.00
70149;DHT22;57514;52.164;5.282;2022-08-19T04:24:12;14.50;95.30
70149;DHT22;57514;52.164;5.282;2022-08-19T04:26:39;15.80;88.80
70149;DHT22;57514;52.164;5.282;2022-08-19T04:29:11;17.10;95.90
70149;DHT22;57514;52.164;5.282;2022-08-19T04:31:39;16.50;95.80
70149;DHT22;57514;52.164;5.282;2022-08-19T04:34:08;15.70;89.00
70149;DHT22;57514;52.164;5.282;2022-08-19T04:36:41;15.60;89.10
70149;DHT22;57514;52.164;5.282;2022-08-19T04:39:11;14.30;95.40
70149;DHT22;57514;52.164;5.282;2022-08-19T04:41:38;16.30;95.90
70149;DHT22;57514;52.164;5.282;2022-08-19T04:49:21;15.70;89.30
70149;DHT22;57514;52.164;5.282;2022-08-19T04:51:50;15.70;89.40
70149;DHT22;57514;52.164;5.282;2022-08-19T04:57:06;15.00;94.70
70149;DHT22;57514;52.164;5.282;2022-08-19T04:59:34;16.90;96.10
70149;DHT22;57514;52.164;5.282;2022-08-19T05:02:03;14.50;95.60
70149;DHT22;57514;52.164;5.282;2022-08-19T05:04:30;15.30;95.80
70149;DHT22;57514;52.164;5.282;2022-08-19T05:06:59;15.80;89.80
70149;DHT22;57514;52.164;5.282;2022-08-19T05:09:28;14.50;95.70
70149;DHT22;57514;52.164;5.282;2022-08-19T05:14:43;17.40;96.30
70149;DHT22;57514;52.164;5.282;2022-08-19T05:17:11;17.20;95.40
70149;DHT22;57514;52.164;5.282;2022-08-19T05:19:53;14.90;88.20
70149;DHT22;57514;52.164;5.282;2022-08-19T05:22:42;16.80;96.00
70149;DHT22;57514;52.164;5.282;2022-08-19T05:25:12;16.20;89.80
70149;DHT22;57514;52.164;5.282;2022-08-19T05:27:40;16.00;90.40
70149;DHT22;57514;52.164;5.282;2022-08-19T05:30:09;17.10;96.20
70149;DHT22;57514;52.164;5.282;2022-08-19T05:32:36;16.10;92.80
70149;DHT22;57514;52.164;5.282;2022-08-19T05:35:04;16.80;89.80
70149;DHT22;57514;52.164;5.282;2022-08-19T05:39:58;16.00;87.60
70149;DHT22;57514;52.164;5.282;2022-08-19T05:42:25;15.70;90.60
70149;DHT22;57514;52.164;5.282;2022-08-19T05:49:47;18.70;96.20
70149;DHT22;57514;52.164;5.282;2022-08-19T05:52:16;19.40;90.50
70149;DHT22;57514;52.164;5.282;2022-08-19T05:54:46;17.80;90.20
70149;DHT22;57514;52.164;5.282;2022-08-19T05:57:18;19.50;96.50
70149;DHT22;57514;52.164;5.282;2022-08-19T06:04:42;17.30;95.60
70149;DHT22;57514;52.164;5.282;2022-08-19T06:07:11;18.80;93.40
70149;DHT22;57514;52.164;5.282;2022-08-19T06:09:39;20.20;94.60
70149;DHT22;57514;52.164;5.282;2022-08-19T06:14:36;17.80;95.40
70149;DHT22;57514;52.164;5.282;2022-08-19T06:17:07;17.80;90.60
70149;DHT22;57514;52.164;5.282;2022-08-19T06:19:35;20.20;96.00
70149;DHT22;57514;52.164;5.282;2022-08-19T06:22:07;20.00;89.70
70149;DHT22;57514;52.164;5.282;2022-08-19T06:24:34;21.30;96.30
70149;DHT22;57514;52.164;5.282;2022-08-19T06:27:02;20.80;87.30
70149;DHT22;57514;52.164;5.282;2022-08-19T06:29:29;19.60;93.50
70149;DHT22;57514;52.164;5.282;2022-08-19T06:31:58;22.10;93.80
70149;DHT22;57514;52.164;5.282;2022-08-19T06:34:27;20.90;93.50
70149;DHT22;57514;52.164;5.282;2022-08-19T06:36:56;22.30;93.60
70149;DHT22;57514;52.164;5.282;2022-08-19T06:39:26;21.60;93.40
70149;DHT22;57514;52.164;5.282;2022-08-19T06:41:55;20.80;85.30
70149;DHT22;57514;52.164;5.282;2022-08-19T06:44:29;19.60;88.80
70149;DHT22;57514;52.164;5.282;2022-08-19T06:47:07;20.60;93.40
70149;DHT22;57514;52.164;5.282;2022-08-19T06:52:08;21.20;83.20
70149;DHT22;57514;52.164;5.282;2022-08-19T06:54:40;20.00;92.90
70149;DHT22;57514;52.164;5.282;2022-08-19T06:57:23;21.30;83.00
70149;DHT22;57514;52.164;5.282;2022-08-19T06:59:51;21.30;82.20
70149;DHT22;57514;52.164;5.282;2022-08-19T07:02:19;21.90;92.80
70149;DHT22;57514;52.164;5.282;2022-08-19T07:07:19;21.20;92.40
70149;DHT22;57514;52.164;5.282;2022-08-19T07:09:49;20.80;92.30
70149;DHT22;57514;52.164;5.282;2022-08-19T07:12:31;20.70;92.10
70149;DHT22;57514;52.164;5.282;2022-08-19T07:15:04;22.30;92.30
70149;DHT22;57514;52.164;5.282;2022-08-19T07:17:32;20.60;83.40
70149;DHT22;57514;52.164;5.282;2022-08-19T07:20:01;21.80;91.60
70149;DHT22;57514;52.164;5.282;2022-08-19T07:22:33;23.10;91.40
70149;DHT22;57514;52.164;5.282;2022-08-19T07:25:00;21.60;91.20
70149;DHT22;57514;52.164;5.282;2022-08-19T07:27:30;20.20;91.20
70149;DHT22;57514;52.164;5.282;2022-08-19T07:34:55;20.90;87.70
70149;DHT22;57514;52.164;5.282;2022-08-19T07:37:23;20.30;91.50
70149;DHT22;57514;52.164;5.282;2022-08-19T07:39:58;20.50;81.10
70149;DHT22;57514;52.164;5.282;2022-08-19T07:42:26;20.30;89.50
70149;DHT22;57514;52.164;5.282;2022-08-19T07:44:53;20.70;84.20
70149;DHT22;57514;52.164;5.282;2022-08-19T07:47:19;22.00;91.50
70149;DHT22;57514;52.164;5.282;2022-08-19T07:50:10;23.10;91.70
70149;DHT22;57514;52.164;5.282;2022-08-19T07:52:38;21.20;91.30
70149;DHT22;57514;52.164;5.282;2022-08-19T07:55:07;21.80;80.40
70149;DHT22;57514;52.164;5.282;2022-08-19T08:00:23;22.90;91.70
70149;DHT22;57514;52.164;5.282;2022-08-19T08:02:51;23.20;91.60
70149;DHT22;57514;52.164;5.282;2022-08-19T08:05:22;21.70;90.40
70149;DHT22;57514;52.164;5.282;2022-08-19T08:08:10;22.20;79.30
70149;DHT22;57514;52.164;5.282;2022-08-19T08:10:55;21.10;90.20
70149;DHT22;57514;52.164;5.282;2022-08-19T08:13:24;21.40;90.30
70149;DHT22;57514;52.164;5.282;2022-08-19T08:15:52;24.10;90.40
70149;DHT22;57514;52.164;5.282;2022-08-19T08:18:22;22.50;78.00
70149;DHT22;57514;52.164;5.282;2022-08-19T08:20:57;23.40;79.00
70149;DHT22;57514;52.164;5.282;2022-08-19T08:23:24;25.30;91.10
70149;DHT22;57514;52.164;5.282;2022-08-19T08:25:55;25.30;85.50
70149;DHT22;57514;52.164;5.282;2022-08-19T08:28:24;24.50;85.30
70149;DHT22;57514;52.164;5.282;2022-08-19T08:30:51;26.80;84.90
70149;DHT22;57514;52.164;5.282;2022-08-19T08:33:21;27.20;73.90
70149;DHT22;57514;52.164;5.282;2022-08-19T08:36:10;26.00;65.20
70149;DHT22;57514;52.164;5.282;2022-08-19T08:38:37;26.30;76.00
70149;DHT22;57514;52.164;5.282;2022-08-19T08:41:18;25.60;78.00
70149;DHT22;57514;52.164;5.282;2022-08-19T08:43:50;27.40;79.20
70149;DHT22;57514;52.164;5.282;2022-08-19T08:46:25;29.80;74.80
70149;DHT22;57514;52.164;5.282;2022-08-19T08:49:23;31.30;72.20
70149;DHT22;57514;52.164;5.282;2022-08-19T08:52:04;29.70;66.80
70149;DHT22;57514;52.164;5.282;2022-08-19T08:54:41;31.30;51.90
70149;DHT22;57514;52.164;5.282;2022-08-19T08:57:49;32.00;61.70
70149;DHT22;57514;52.164;5.282;2022-08-19T09:00:27;30.90;62.00
70149;DHT22;57514;52.164;5.282;2022-08-19T09:02:57;30.90;61.60
70149;DHT22;57514;52.164;5.282;2022-08-19T09:05:36;31.90;47.50
70149;DHT22;57514;52.164;5.282;2022-08-19T09:11:36;29.90;60.40
70149;DHT22;57514;52.164;5.282;2022-08-19T09:14:23;29.30;61.40
70149;DHT22;57514;52.164;5.282;2022-08-19T09:17:16;29.50;63.70
70149;DHT22;57514;52.164;5.282;2022-08-19T09:19:57;27.90;64.90
70149;DHT22;57514;52.164;5.282;2022-08-19T09:24:55;28.30;55.20
70149;DHT22;57514;52.164;5.282;2022-08-19T09:27:24;28.50;58.30
70149;DHT22;57514;52.164;5.282;2022-08-19T09:30:20;28.10;53.60
70149;DHT22;57514;52.164;5.282;2022-08-19T09:35:20;27.60;66.70
70149;DHT22;57514;52.164;5.282;2022-08-19T09:40:23;26.70;66.80
70149;DHT22;57514;52.164;5.282;2022-08-19T09:42:50;28.30;67.60
70149;DHT22;57514;52.164;5.282;2022-08-19T09:45:20;27.40;54.80
70149;DHT22;57514;52.164;5.282;2022-08-19T09:47:50;26.40;67.80
70149;DHT22;57514;52.164;5.282;2022-08-19T09:50:21;27.00;68.80
70149;DHT22;57514;52.164;5.282;2022-08-19T09:55:22;29.50;61.80
70149;DHT22;57514;52.164;5.282;2022-08-19T10:02:44;27.60;67.00
70149;DHT22;57514;52.164;5.282;2022-08-19T10:05:11;26.80;67.30
70149;DHT22;57514;52.164;5.282;2022-08-19T10:07:56;27.00;68.60
70149;DHT22;57514;52.164;5.282;2022-08-19T10:10:23;29.50;69.40
70149;DHT22;57514;52.164;5.282;2022-08-19T10:15:21;28.50;65.60
70149;DHT22;57514;52.164;5.282;2022-08-19T10:22:51;27.70;68.80
70149;DHT22;57514;52.164;5.282;2022-08-19T10:25:19;30.20;66.40
70149;DHT22;57514;52.164;5.282;2022-08-19T10:27:45;31.10;65.70
70149;DHT22;57514;52.164;5.282;2022-08-19T10:30:17;31.60;64.20
70149;DHT22;57514;52.164;5.282;2022-08-19T10:32:45;30.70;59.50
70149;DHT22;57514;52.164;5.282;2022-08-19T10:35:13;31.90;44.30
70149;DHT22;57514;52.164;5.282;2022-08-19T10:37:47;31.50;59.60
70149;DHT22;57514;52.164;5.282;2022-08-19T10:40:23;34.30;57.60
70149;DHT22;57514;52.164;5.282;2022-08-19T10:42:50;35.20;54.10
70149;DHT22;57514;52.164;5.282;2022-08-19T10:47:44;32.90;54.70
70149;DHT22;57514;52.164;5.282;2022-08-19T10:50:13;31.00;55.90
70149;DHT22;57514;52.164;5.282;2022-08-19T10:53:04;30.40;57.90
70149;DHT22;57514;52.164;5.282;2022-08-19T10:55:35;30.50;58.20
70149;DHT22;57514;52.164;5.282;2022-08-19T10:58:21;30.30;52.40
70149;DHT22;57514;52.164;5.282;2022-08-19T11:00:57;30.20;60.00
70149;DHT22;57514;52.164;5.282;2022-08-19T11:03:25;31.90;57.70
70149;DHT22;57514;52.164;5.282;2022-08-19T11:06:05;30.80;58.10
70149;DHT22;57514;52.164;5.282;2022-08-19T11:08:34;33.20;57.70
70149;DHT22;57514;52.164;5.282;2022-08-19T11:11:05;34.90;56.60
70149;DHT22;57514;52.164;5.282;2022-08-19T11:13:35;33.30;52.00
70149;DHT22;57514;52.164;5.282;2022-08-19T11:16:14;34.60;50.30
70149;DHT22;57514;52.164;5.282;2022-08-19T11:18:47;33.10;50.40
70149;DHT22;57514;52.164;5.282;2022-08-19T11:21:26;32.40;51.10
70149;DHT22;57514;52.164;5.282;2022-08-19T11:23:56;32.70;53.60
70149;DHT22;57514;52.164;5.282;2022-08-19T11:26:25;31.30;44.00
70149;DHT22;57514;52.164;5.282;2022-08-19T11:28:52;30.80;51.70
70149;DHT22;57514;52.164;5.282;2022-08-19T11:31:22;30.50;43.70
70149;DHT22;57514;52.164;5.282;2022-08-19T11:33:57;30.00;59.60
70149;DHT22;57514;52.164;5.282;2022-08-19T11:36:23;31.70;59.10
70149;DHT22;57514;52.164;5.282;2022-08-19T11:38:51;32.00;56.80
70149;DHT22;57514;52.164;5.282;2022-08-19T11:41:20;30.80;55.20
70149;DHT22;57514;52.164;5.282;2022-08-19T11:43:50;30.40;48.70
70149;DHT22;57514;52.164;5.282;2022-08-19T11:46:20;30.90;43.50
70149;DHT22;57514;52.164;5.282;2022-08-19T11:51:22;28.80;59.70
70149;DHT22;57514;52.164;5.282;2022-08-19T11:53:51;28.10;61.70
70149;DHT22;57514;52.164;5.282;2022-08-19T11:56:19;27.50;62.80
70149;DHT22;57514;52.164;5.282;2022-08-19T11:58:47;28.60;61.10
70149;DHT22;57514;52.164;5.282;2022-08-19T12:01:16;27.70;59.90
70149;DHT22;57514;52.164;5.282;2022-08-19T12:03:44;26.40;56.00
70149;DHT22;57514;52.164;5.282;2022-08-19T12:06:18;26.10;67.90
70149;DHT22;57514;52.164;5.282;2022-08-19T12:08:46;26.10;69.80
70149;DHT22;57514;52.164;5.282;2022-08-19T12:13:41;26.70;73.80
70149;DHT22;57514;52.164;5.282;2022-08-19T12:16:24;25.00;64.10
70149;DHT22;57514;52.164;5.282;2022-08-19T12:18:51;24.30;78.40
70149;DHT22;57514;52.164;5.282;2022-08-19T12:21:21;23.10;78.10
70149;DHT22;57514;52.164;5.282;2022-08-19T12:23:49;23.80;69.30
70149;DHT22;57514;52.164;5.282;2022-08-19T12:26:21;24.90;84.30
70149;DHT22;57514;52.164;5.282;2022-08-19T12:28:48;22.30;84.20
70149;DHT22;57514;52.164;5.282;2022-08-19T12:31:15;22.50;85.10
70149;DHT22;57514;52.164;5.282;2022-08-19T12:36:11;23.50;78.30
70149;DHT22;57514;52.164;5.282;2022-08-19T12:38:39;23.40;76.90
70149;DHT22;57514;52.164;5.282;2022-08-19T12:41:09;25.20;75.70
70149;DHT22;57514;52.164;5.282;2022-08-19T12:43:36;24.40;72.50
70149;DHT22;57514;52.164;5.282;2022-08-19T12:46:09;26.00;82.60
70149;DHT22;57514;52.164;5.282;2022-08-19T12:51:11;24.40;67.20
70149;DHT22;57514;52.164;5.282;2022-08-19T12:56:07;25.80;68.70
70149;DHT22;57514;52.164;5.282;2022-08-19T12:58:38;25.00;80.70
70149;DHT22;57514;52.164;5.282;2022-08-19T13:01:11;25.50;81.10
70149;DHT22;57514;52.164;5.282;2022-08-19T13:03:38;26.20;81.30
70149;DHT22;57514;52.164;5.282;2022-08-19T13:06:07;24.40;80.60
70149;DHT22;57514;52.164;5.282;2022-08-19T13:08:34;25.60;82.20
70149;DHT22;57514;52.164;5.282;2022-08-19T13:11:13;25.30;68.30
70149;DHT22;57514;52.164;5.282;2022-08-19T13:13:41;25.20;70.30
70149;DHT22;57514;52.164;5.282;2022-08-19T13:16:10;25.40;83.60
70149;DHT22;57514;52.164;5.282;2022-08-19T13:18:39;24.30;70.10
70149;DHT22;57514;52.164;5.282;2022-08-19T13:21:08;25.10;70.60
70149;DHT22;57514;52.164;5.282;2022-08-19T13:23:35;25.50;71.50
70149;DHT22;57514;52.164;5.282;2022-08-19T13:26:04;24.90;70.60
70149;DHT22;57514;52.164;5.282;2022-08-19T13:28:33;25.10;83.10
70149;DHT22;57514;52.164;5.282;2022-08-19T13:31:20;24.90;82.80
70149;DHT22;57514;52.164;5.282;2022-08-19T13:34:06;24.90;82.60
70149;DHT22;57514;52.164;5.282;2022-08-19T13:41:28;24.90;81.70
70149;DHT22;57514;52.164;5.282;2022-08-19T13:43:55;25.50;81.50
70149;DHT22;57514;52.164;5.282;2022-08-19T13:46:21;26.20;81.70
70149;DHT22;57514;52.164;5.282;2022-08-19T13:48:48;26.50;81.70
70149;DHT22;57514;52.164;5.282;2022-08-19T13:51:16;27.50;82.40
70149;DHT22;57514;52.164;5.282;2022-08-19T13:53:44;27.40;82.60
70149;DHT22;57514;52.164;5.282;2022-08-19T13:56:16;27.20;82.70
70149;DHT22;57514;52.164;5.282;2022-08-19T13:58:43;27.50;77.30
70149;DHT22;57514;52.164;5.282;2022-08-19T14:01:10;27.20;82.70
70149;DHT22;57514;52.164;5.282;2022-08-19T14:03:37;25.50;81.70
70149;DHT22;57514;52.164;5.282;2022-08-19T14:06:04;27.10;82.20
70149;DHT22;57514;52.164;5.282;2022-08-19T14:08:30;25.90;80.60
70149;DHT22;57514;52.164;5.282;2022-08-19T14:10:58;27.50;70.00
70149;DHT22;57514;52.164;5.282;2022-08-19T14:16:00;26.20;77.60
70149;DHT22;57514;52.164;5.282;2022-08-19T14:18:27;26.60;78.40
70149;DHT22;57514;52.164;5.282;2022-08-19T14:20:56;28.50;79.70
70149;DHT22;57514;52.164;5.282;2022-08-19T14:23:24;27.90;79.60
70149;DHT22;57514;52.164;5.282;2022-08-19T14:25:51;28.30;80.40
70149;DHT22;57514;52.164;5.282;2022-08-19T14:30:45;26.80;79.80
70149;DHT22;57514;52.164;5.282;2022-08-19T14:33:11;25.80;76.20
70149;DHT22;57514;52.164;5.282;2022-08-19T14:38:16;26.00;81.60
70149;DHT22;57514;52.164;5.282;2022-08-19T14:40:43;25.50;82.90
70149;DHT22;57514;52.164;5.282;2022-08-19T14:43:10;23.90;83.00
70149;DHT22;57514;52.164;5.282;2022-08-19T14:45:39;25.50;80.00
70149;DHT22;57514;52.164;5.282;2022-08-19T14:48:08;23.20;84.30
70149;DHT22;57514;52.164;5.282;2022-08-19T14:53:12;25.50;87.20
70149;DHT22;57514;52.164;5.282;2022-08-19T14:55:43;26.20;87.80
70149;DHT22;57514;52.164;5.282;2022-08-19T14:58:10;25.70;86.70
70149;DHT22;57514;52.164;5.282;2022-08-19T15:00:58;24.50;74.90
70149;DHT22;57514;52.164;5.282;2022-08-19T15:05:52;26.90;85.60
70149;DHT22;57514;52.164;5.282;2022-08-19T15:08:19;27.00;85.20
70149;DHT22;57514;52.164;5.282;2022-08-19T15:15:42;24.70;83.70
70149;DHT22;57514;52.164;5.282;2022-08-19T15:18:09;24.30;83.10
70149;DHT22;57514;52.164;5.282;2022-08-19T15:25:35;24.70;82.70
70149;DHT22;57514;52.164;5.282;2022-08-19T15:28:02;25.30;69.20
70149;DHT22;57514;52.164;5.282;2022-08-19T15:32:57;25.30;70.40
70149;DHT22;57514;52.164;5.282;2022-08-19T15:35:24;24.70;72.40
70149;DHT22;57514;52.164;5.282;2022-08-19T15:37:53;25.10;70.40
70149;DHT22;57514;52.164;5.282;2022-08-19T15:40:22;25.00;70.90
70149;DHT22;57514;52.164;5.282;2022-08-19T15:42:49;23.60;83.10
70149;DHT22;57514;52.164;5.282;2022-08-19T15:45:17;23.70;81.70
70149;DHT22;57514;52.164;5.282;2022-08-19T15:50:19;24.70;70.10
70149;DHT22;57514;52.164;5.282;2022-08-19T15:52:52;24.70;85.00
70149;DHT22;57514;52.164;5.282;2022-08-19T15:55:21;24.00;72.20
70149;DHT22;57514;52.164;5.282;2022-08-19T15:58:09;24.60;71.40
70149;DHT22;57514;52.164;5.282;2022-08-19T16:01:04;24.90;86.00
70149;DHT22;57514;52.164;5.282;2022-08-19T16:03:53;25.30;86.00
70149;DHT22;57514;52.164;5.282;2022-08-19T16:06:45;23.40;84.60
70149;DHT22;57514;52.164;5.282;2022-08-19T16:09:13;25.40;72.90
70149;DHT22;57514;52.164;5.282;2022-08-19T16:11:41;24.50;74.80
70149;DHT22;57514;52.164;5.282;2022-08-19T16:14:15;24.50;72.90
70149;DHT22;57514;52.164;5.282;2022-08-19T16:16:43;23.40;85.20
70149;DHT22;57514;52.164;5.282;2022-08-19T16:19:14;26.10;86.80
70149;DHT22;57514;52.164;5.282;2022-08-19T16:21:45;24.30;77.70
70149;DHT22;57514;52.164;5.282;2022-08-19T16:24:14;24.90;73.30
70149;DHT22;57514;52.164;5.282;2022-08-19T16:26:42;23.90;75.10
70149;DHT22;57514;52.164;5.282;2022-08-19T16:29:10;25.20;72.30
70149;DHT22;57514;52.164;5.282;2022-08-19T16:31:40;24.40;79.30
70149;DHT22;57514;52.164;5.282;2022-08-19T16:34:07;24.30;83.30
70149;DHT22;57514;52.164;5.282;2022-08-19T16:36:34;27.20;84.60
70149;DHT22;57514;52.164;5.282;2022-08-19T16:39:02;24.70;82.30
70149;DHT22;57514;52.164;5.282;2022-08-19T16:46:23;24.50;81.60
70149;DHT22;57514;52.164;5.282;2022-08-19T16:48:53;25.30;69.30
70149;DHT22;57514;52.164;5.282;2022-08-19T16:51:20;24.10;70.30
70149;DHT22;57514;52.164;5.282;2022-08-19T16:56:18;25.90;71.50
70149;DHT22;57514;52.164;5.282;2022-08-19T17:06:11;24.80;71.30
70149;DHT22;57514;52.164;5.282;2022-08-19T17:08:49;26.20;85.40
70149;DHT22;57514;52.164;5.282;2022-08-19T17:11:17;25.40;82.40
70149;DHT22;57514;52.164;5.282;2022-08-19T17:13:45;23.40;84.40
70149;DHT22;57514;52.164;5.282;2022-08-19T17:16:14;24.90;85.40
70149;DHT22;57514;52.164;5.282;2022-08-19T17:23:37;25.60;86.70
70149;DHT22;57514;52.164;5.282;2022-08-19T17:26:11;22.90;85.60
70149;DHT22;57514;52.164;5.282;2022-08-19T17:28:48;22.90;85.90
70149;DHT22;57514;52.164;5.282;2022-08-19T17:31:18;24.40;73.80
70149;DHT22;57514;52.164;5.282;2022-08-19T17:33:45;24.50;86.50
70149;DHT22;57514;52.164;5.282;2022-08-19T17:36:21;24.50;73.50
70149;DHT22;57514;52.164;5.282;2022-08-19T17:38:49;25.30;86.70
70149;DHT22;57514;52.164;5.282;2022-08-19T17:41:16;23.60;85.60
70149;DHT22;57514;52.164;5.282;2022-08-19T17:43:44;23.20;85.70
70149;DHT22;57514;52.164;5.282;2022-08-19T17:46:11;22.90;74.80
70149;DHT22;57514;52.164;5.282;2022-08-19T17:48:47;22.70;85.60
70149;DHT22;57514;52.164;5.282;2022-08-19T17:51:23;24.00;73.40
70149;DHT22;57514;52.164;5.282;2022-08-19T17:53:51;25.30;83.60
70149;DHT22;57514;52.164;5.282;2022-08-19T18:01:27;23.60;73.80
70149;DHT22;57514;52.164;5.282;2022-08-19T18:04:15;24.90;78.90
70149;DHT22;57514;52.164;5.282;2022-08-19T18:09:20;22.10;79.40
70149;DHT22;57514;52.164;5.282;2022-08-19T18:11:51;23.00;87.50
70149;DHT22;57514;52.164;5.282;2022-08-19T18:14:20;22.40;87.60
70149;DHT22;57514;52.164;5.282;2022-08-19T18:19:22;21.90;83.30
70149;DHT22;57514;52.164;5.282;2022-08-19T18:21:52;24.10;89.00
70149;DHT22;57514;52.164;5.282;2022-08-19T18:24:19;22.50;88.30
70149;DHT22;57514;52.164;5.282;2022-08-19T18:26:46;23.50;88.90